Weather observations for the past three days for
Jackson, Jackson Municipal Airport
Metric (Imperial)
Date Time (cdt) Wind (kph) Vis. (km) Weather Sky Cond. Temperature (ºC) Relative Humidity Wind Chill (°C) Heat Index (°C) Pressure Precipitation (cm)
Air Dwpt 6 hour altimeter (cm) sea level (mb) 1 hr 3 hr 6 hr
Max. Min.
05 01:56 E 11 11.27 Fair CLR 22 22 100% 76.12 0.0
05 01:35 E 9 16.09 Fair CLR 22 22 100% 76.12 0.0
05 01:15 E 11 16.09 Fair CLR 23 22 94% 76.15 0.0
05 00:55 E 9 16.09 Fair CLR 23 22 94% 76.15 0.0
05 00:35 E 9 16.09 Fair CLR 23 22 94% 76.12 0.0
05 00:15 NE 9 16.09 Fair CLR 23 22 94% 76.12 0.0
04 23:55 NE 9 16.09 Fair CLR 23 23 100% 76.12 0.0
04 23:36 NE 9 11.27 Fair CLR 23 23 100% 76.12 0.0
04 23:15 NE 7 11.27 Fair CLR 23 23 100% 76.15 0.0
04 22:55 NE 9 16.09 Fair CLR 24 23 94% 23 76.12 0.0
04 22:35 NE 9 11.27 Fair CLR 24 24 100% 23 76.15 0.0
04 22:15 E 9 11.27 Fair CLR 24 24 100% 23 76.12 0.0
04 21:55 NE 7 11.27 Fair CLR 24 24 100% 23 76.12 0.0
04 21:35 E 9 16.09 Fair CLR 25 24 94% 26 76.1 0.0
04 21:16 E 9 16.09 Fair CLR 25 24 94% 26 76.07 0.0
04 20:55 E 9 16.09 Fair CLR 25 24 94% 26 76.07 0.0
04 20:35 NE 9 16.09 Fair CLR 26 24 89% 28 76.05 0.0
04 20:15 NE 9 16.09 Fair CLR 26 24 89% 28 76.05 0.0
04 19:55 NE 9 16.09 Fair CLR 27 24 84% 30 76.02 0.0
04 19:35 NE 9 16.09 Fair CLR 28 24 79% 32 76.02 0.0
04 19:15 E 7 16.09 Fair CLR 29 24 74% 34 76.02 0.0
04 18:56 NE 9 16.09 Fair CLR 30 24 70% 35 76.02 0.0
04 18:35 NE 9 16.09 Fair CLR 31 24 66% 37 76.02 0.0
04 18:15 NE 11 16.09 Fair CLR 31 24 66% 37 76 0.0
04 17:55 E 11 16.09 Fair CLR 31 23 62% 35 76 0.0
04 17:35 E 13 16.09 Fair CLR 32 23 59% 37 76 0.0
04 17:15 NE 13 16.09 Fair CLR 32 23 59% 37 75.97 0.0
04 16:55 E 15 16.09 Fair CLR 32 22 55% 36 75.97 0.0
04 16:36 E 13 16.09 Fair CLR 32 22 55% 36 76 0.0
04 16:16 NE 13 16.09 Fair CLR 32 22 55% 36 76 0.0
04 15:55 NE 13 16.09 Fair CLR 33 22 52% 37 75.97 0.0
04 15:35 E 13 16.09 Fair CLR 32 22 55% 36 76 0.0
04 15:15 NE 9 16.09 Fair CLR 32 22 55% 36 76 0.0
04 14:55 E 11 16.09 Fair CLR 32 22 55% 36 76 0.0
04 14:35 NE 15 16.09 Fair CLR 32 22 55% 36 75.97 0.0
04 14:15 NE 9 16.09 Fair CLR 32 22 55% 36 75.97 0.0
04 13:56 NE 9 16.09 Fair CLR 32 22 55% 36 75.97 0.0
04 13:35 NE 11 16.09 Fair CLR 32 22 55% 36 75.97 0.0
04 13:15 NE 13 16.09 Fair CLR 32 22 55% 36 75.97 0.0
04 12:55 N 9 16.09 Fair CLR 31 22 59% 35 76 0.0
04 12:35 NE 7 16.09 Fair CLR 31 23 62% 35 76 0.0
04 12:15 NE 9 16.09 Fair CLR 31 22 59% 35 75.97 0.0
04 11:55 NE 7 16.09 Fair CLR 30 22 62% 33 75.97 0.0
04 11:36 N 6 16.09 Fair CLR 30 23 66% 34 75.97 0.0
04 11:15 Calm 16.09 Fair CLR 29 22 66% 32 75.95 0.0
04 10:55 Calm 16.09 Fair CLR 29 22 66% 32 75.95 0.0
04 10:35 Calm 16.09 Fair CLR 28 22 70% 31 75.92 0.0
04 10:15 Calm 16.09 Fair CLR 28 22 70% 31 75.92 0.0
04 09:55 Calm 16.09 Fair CLR 27 21 70% 29 75.92 0.0
04 09:35 Calm 16.09 Fair CLR 26 22 79% 28 75.92 0.0
04 09:16 N 7 16.09 Fair CLR 25 22 83% 26 75.92 0.0
04 08:55 NW 6 16.09 Fair CLR 25 21 79% 26 75.92 0.0
04 08:35 Calm 16.09 Fair CLR 23 21 89% 75.92 0.0
04 08:15 Calm 16.09 Fair CLR 22 21 94% 75.95 0.0
04 07:55 Calm 16.09 Fair CLR 22 21 94% 75.92 0.0
04 07:35 Calm 16.09 Fair CLR 20 20 100% 75.9 0.0
04 07:15 Calm 16.09 Fair CLR 21 20 94% 75.9 0.0
04 06:56 Calm 16.09 Fair CLR 20 20 100% 75.87 0.0
04 06:35 Calm 16.09 Fair CLR 21 20 94% 75.87 0.0
04 06:15 Calm 16.09 Fair CLR 21 20 94% 75.84 0.0
04 05:55 SW 7 16.09 Fair CLR 21 20 94% 75.82 0.0
04 05:35 Calm 16.09 Fair CLR 21 20 94% 75.82 0.0
04 05:15 SW 6 16.09 Fair CLR 22 20 88% 75.82 0.0
04 04:55 SW 6 16.09 Fair CLR 22 20 88% 75.82 0.0
04 04:36 SW 11 16.09 Fair CLR 22 21 94% 75.82 0.0
04 04:15 SW 6 16.09 Fair CLR 22 21 94% 75.82 0.0
04 03:55 S 9 16.09 Fair CLR 22 21 94% 75.82 0.0
04 03:35 S 9 16.09 Fair CLR 22 21 94% 75.79 0.0
04 03:15 S 7 16.09 Fair CLR 23 21 89% 75.79 0.0
04 02:55 S 7 16.09 Fair CLR 23 21 89% 75.82 0.0
04 02:35 S 7 16.09 Fair CLR 23 21 89% 75.79 0.0
04 02:16 S 7 16.09 Fair CLR 23 21 89% 75.79 0.0
04 01:55 S 7 16.09 Fair CLR 23 22 94% 75.79 0.0
04 01:35 S 7 16.09 Fair CLR 23 22 94% 75.82 0.0
04 01:15 S 9 16.09 Fair CLR 24 22 89% 24 75.82 0.0
04 00:55 S 7 16.09 Fair CLR 24 22 89% 24 75.79 0.0
04 00:35 S 9 16.09 Fair CLR 24 22 89% 24 75.79 0.0
04 00:15 S 9 16.09 Fair CLR 25 22 83% 26 75.79 0.0
03 23:56 S 9 16.09 Fair CLR 25 22 83% 26 75.79 0.0
03 23:35 S 7 16.09 Fair CLR 25 22 83% 26 75.79 0.0
03 23:15 S 7 16.09 Fair CLR 25 22 83% 26 75.79 0.0
03 22:55 S 6 16.09 Fair CLR 24 22 89% 24 75.79 0.0
03 22:35 Calm 16.09 Fair CLR 25 22 83% 26 75.79 0.0
03 22:15 S 6 16.09 Fair CLR 25 22 83% 26 75.79 0.0
03 21:55 Calm 16.09 Fair CLR 25 22 83% 26 75.79 0.0
03 21:35 Calm 16.09 Fair CLR 26 22 79% 28 75.79 0.0
03 21:16 Calm 16.09 Fair CLR 26 22 79% 28 75.77 0.0
03 20:55 S 7 16.09 Fair CLR 26 22 79% 28 75.74 0.0
03 20:35 S 9 16.09 Fair CLR 27 22 74% 29 75.74 0.0
03 20:15 S 11 16.09 Fair CLR 27 22 74% 29 75.72 0.0
03 19:55 S 9 16.09 Fair CLR 28 22 70% 31 75.72 0.0
03 19:35 S 15 16.09 Fair CLR 28 22 70% 31 75.69 0.0
03 19:15 S 15 16.09 Fair CLR 29 22 66% 32 75.69 0.0
03 18:56 S 19 16.09 Fair CLR 29 22 66% 32 75.69 0.0
03 18:35 S 24 G 30 16.09 Fair CLR 30 22 62% 33 75.67 0.0
03 18:15 S 20 G 33 16.09 Fair CLR 30 22 62% 33 75.67 0.0
03 17:55 S 28 G 35 16.09 Fair CLR 31 22 59% 35 75.67 0.0
03 17:35 SW 17 16.09 Fair CLR 29 23 70% 33 75.67 0.0
03 17:15 S 13 16.09 Fair CLR 28 22 70% 31 75.67 0.0
03 16:55 S 20 G 28 16.09 Fair CLR 28 22 70% 31 75.62 0.0
03 16:36 S 19 16.09 Fair CLR 28 22 70% 31 75.62 0.0
03 16:15 S 20 16.09 Fair CLR 29 22 66% 32 75.62 0.0
03 15:55 S 22 G 33 16.09 Fair CLR 29 21 62% 31 75.64 0.0
03 15:35 S 17 16.09 Fair CLR 28 21 66% 30 75.67 0.0
03 15:15 S 26 G 37 16.09 Fair CLR 29 20 58% 31 75.69 0.0
03 14:55 S 26 G 35 16.09 Fair CLR 28 20 62% 30 75.69 0.0
03 14:35 S 28 G 43 16.09 Fair CLR 29 20 58% 31 75.67 0.0
03 14:16 S 33 G 41 16.09 Fair and Breezy CLR 29 20 58% 31 75.64 0.0
03 13:35 S 37 G 50 16.09 Fair and Breezy CLR 30 20 55% 32 75.67 0.0
03 13:15 S 28 G 43 16.09 Fair CLR 30 21 59% 33 75.72 0.0
03 12:55 S 30 G 41 16.09 Fair CLR 29 21 62% 31 75.72 0.0
03 12:35 S 28 G 46 16.09 Thunderstorm in Vicinity CLR 29 20 58% 31 75.69 0.0
03 12:15 S 28 G 48 16.09 Fair CLR 28 20 62% 30 75.72 0.0
03 11:56 S 26 G 43 16.09 Fair CLR 27 20 66% 29 75.74 0.0
03 11:35 S 22 G 30 16.09 Partly Cloudy SCT110 26 21 74% 27 75.74 0.0
03 11:15 S 20 G 31 16.09 Partly Cloudy SCT110 25 20 74% 26 75.74 0.0
03 10:55 S 24 G 31 16.09 Thunderstorm in Vicinity CLR 25 20 74% 26 75.74 0.0
03 10:35 S 24 G 37 16.09 Fair CLR 25 20 74% 26 75.74 0.0
03 10:15 S 26 G 41 16.09 Fair CLR 26 20 70% 27 75.74 0.0
03 09:55 S 30 G 39 16.09 Fair CLR 26 20 70% 27 75.74 0.0
03 09:36 S 28 G 37 16.09 Fair CLR 26 20 70% 27 75.74 0.0
03 09:15 S 24 16.09 Fair CLR 25 20 74% 26 75.74 0.0
03 08:55 S 17 16.09 Fair CLR 24 20 78% 24 75.77 0.0
03 08:35 S 20 16.09 Fair CLR 24 19 74% 25 75.74 0.0
03 08:15 S 19 16.09 Fair CLR 23 18 74% 75.77 0.0
03 07:55 S 22 G 33 16.09 Fair CLR 22 18 78% 75.74 0.0
03 07:35 SE 26 G 37 16.09 Fair CLR 22 18 78% 75.74 0.0
03 07:16 SE 20 G 28 16.09 Partly Cloudy SCT110 22 18 78% 75.74 0.0
03 06:55 SE 20 G 31 16.09 Mostly Cloudy BKN110 22 18 78% 75.77 0.0
03 06:35 SE 24 G 31 16.09 Mostly Cloudy BKN110 21 18 83% 75.79 0.0
03 06:15 SE 22 G 30 16.09 Partly Cloudy SCT110 22 17 73% 75.79 0.0
03 05:55 SE 19 16.09 Partly Cloudy SCT110 21 17 78% 75.77 0.0
03 05:35 S 15 16.09 Partly Cloudy SCT110 22 17 73% 75.79 0.0
03 05:15 S 9 16.09 Mostly Cloudy BKN100 21 18 83% 75.79 0.0
03 04:56 E 9 16.09 Overcast OVC100 21 18 83% 75.74 0.0
03 04:35 SE 11 16.09 Mostly Cloudy BKN110 22 18 78% 75.74 0.0
03 04:15 S 13 G 31 16.09 Thunderstorm Light Rain BKN110 23 17 69% 75.77 0.0
03 03:55 SE 13 16.09 Thunderstorm Light Rain in Vicinity SCT085 BKN110 22 18 78% 75.84 0.0 0.38
03 03:35 S 20 G 28 16.09 Thunderstorm Rain BKN110 22 17 73% 75.87 0.0 0.3
03 03:15 S 26 G 37 11.27 Thunderstorm Heavy Rain SCT042 SCT060 BKN110 22 17 73% 75.87 0.0 0.23
03 02:55 S 30 G 43 16.09 Thunderstorm Rain SCT100 SCT120 22 16 69% 75.77 0.0
03 02:36 SW 33 G 46 16.09 Thunderstorm Heavy Rain in Vicinity and Breezy SCT100 BKN120 24 18 69% 25 75.82 0.0
03 02:15 SW 7 16.09 Thunderstorm SCT120 23 22 94% 75.84 0.0
03 01:55 S 9 16.09 Partly Cloudy SCT095 23 22 94% 75.82 0.0
03 01:35 S 11 16.09 Thunderstorm in Vicinity SCT095 24 22 89% 24 75.82 0.0
03 01:15 S 9 16.09 Fair CLR 23 22 94% 75.79 0.0
03 00:55 S 6 16.09 Fair CLR 23 22 94% 75.79 0.0
03 00:35 Calm 16.09 Fair CLR 22 21 94% 75.82 0.0
03 00:15 Calm 16.09 Fair CLR 22 21 94% 75.82 0.0
02 23:56 SE 6 16.09 Fair CLR 22 21 94% 75.84 0.0
02 23:35 Calm 16.09 Fair CLR 23 21 89% 75.84 0.0
02 23:15 SE 6 16.09 Partly Cloudy SCT120 23 21 89% 75.84 0.0
02 22:55 SE 7 16.09 Partly Cloudy SCT120 23 21 89% 75.84 0.0
02 22:35 SE 7 16.09 Fair CLR 23 21 89% 75.84 0.0
02 22:15 Calm 16.09 Fair CLR 23 21 89% 75.84 0.0
02 21:55 SE 6 16.09 Fair CLR 23 21 89% 75.84 0.0
02 21:36 SE 7 16.09 Fair CLR 23 21 89% 75.84 0.0
02 21:15 SE 6 16.09 Fair CLR 23 21 89% 75.84 0.0
02 20:55 SE 6 16.09 Fair CLR 24 21 83% 24 75.84 0.0
02 20:35 SE 6 11.27 Fair CLR 25 21 79% 26 75.82 0.0
02 20:15 SE 6 16.09 Fair CLR 25 21 79% 26 75.82 0.0
02 19:55 SE 6 16.09 Fair CLR 27 21 70% 29 75.79 0.0
02 19:35 Calm 16.09 Fair CLR 27 21 70% 29 75.79 0.0
02 19:16 SE 7 16.09 Fair CLR 28 21 66% 30 75.79 0.0
02 18:55 S 9 16.09 Fair CLR 29 21 62% 31 75.82 0.0
02 18:35 S 11 16.09 Fair CLR 29 20 58% 31 75.82 0.0
02 18:15 S 11 16.09 Fair CLR 30 20 55% 32 75.82 0.0
02 17:55 S 13 16.09 Fair CLR 30 20 55% 32 75.82 0.0
02 17:15 SE 17 16.09 Fair CLR 31 20 52% 33 75.82 0.0
02 16:56 S 15 16.09 Fair CLR 31 20 52% 33 75.82 0.0
02 16:35 SE 17 16.09 Fair CLR 30 20 55% 32 75.82 0.0
02 16:15 S 17 16.09 Fair CLR 31 20 52% 33 75.84 0.0
02 15:55 SE 15 16.09 Fair CLR 31 20 52% 33 75.84 0.0
02 15:35 S 19 G 30 16.09 Fair CLR 30 19 52% 31 75.84 0.0
02 15:15 S 19 G 30 16.09 Fair CLR 30 19 52% 31 75.87 0.0
02 14:55 S 19 G 28 16.09 Fair CLR 30 19 52% 31 75.87 0.0
02 14:36 S 22 16.09 Fair CLR 30 18 49% 31 75.9 0.0
02 14:15 S 17 16.09 Fair CLR 30 19 52% 31 75.92 0.0
02 13:55 S 17 16.09 Fair CLR 29 20 58% 31 75.92 0.0
02 13:35 S 11 16.09 Fair CLR 29 20 58% 31 75.95 0.0
02 13:15 S 7 16.09 Fair CLR 29 20 58% 31 75.97 0.0
02 12:55 SW 9 16.09 Fair CLR 29 20 58% 31 76 0.0
02 12:35 S 11 16.09 Fair CLR 28 20 62% 30 76 0.0
02 12:16 S 15 16.09 Fair CLR 28 19 58% 29 76.02 0.0
02 11:55 SW 6 16.09 Fair CLR 28 19 58% 29 76.02 0.0
02 11:35 Calm 16.09 Fair CLR 28 19 58% 29 76.02 0.0
02 11:15 Calm 16.09 Fair CLR 27 19 62% 28 76.02 0.0
02 10:55 Calm 16.09 Partly Cloudy SCT055 27 19 62% 28 76.02 0.0
02 10:35 Calm 16.09 Mostly Cloudy BKN055 26 20 70% 27 76.02 0.0
02 10:15 Calm 16.09 Thunderstorm in Vicinity CLR 25 20 74% 26 76 0.0
02 09:56 S 6 16.09 Fair CLR 24 20 78% 24 76 0.0
02 09:35 S 6 16.09 Fair CLR 24 20 78% 24 75.97 0.0
02 09:15 SE 6 16.09 Fair CLR 23 20 83% 75.97 0.0
02 08:55 SE 6 16.09 Fair CLR 22 20 88% 75.97 0.0
02 08:35 S 7 16.09 Fair CLR 21 19 88% 75.97 0.0
02 08:15 SE 6 16.09 Fair CLR 20 19 94% 75.95 0.0
02 07:55 SE 7 16.09 Fair CLR 19 19 100% 75.95 0.0
02 07:36 E 6 16.09 Fair CLR 18 18 100% 75.95 0.0
02 07:15 E 7 16.09 Fair CLR 18 18 100% 75.97 0.0
02 06:55 E 6 16.09 Fair CLR 17 17 100% 75.97 0.0
02 06:35 E 6 16.09 Fair CLR 18 18 100% 75.97 0.0
02 06:15 Calm 16.09 Fair CLR 18 18 100% 75.97 0.0
02 05:55 Calm 16.09 Fair CLR 18 18 100% 76 0.0
02 05:35 Calm 16.09 Fair CLR 18 18 100% 75.97 0.0
02 05:15 Calm 16.09 Partly Cloudy SCT095 18 18 100% 75.97 0.0
02 04:56 Calm 16.09 Partly Cloudy SCT095 18 18 100% 75.97 0.0
02 04:35 E 9 16.09 Fair CLR 19 18 94% 75.97 0.0
02 04:15 E 6 16.09 Fair CLR 19 19 100% 75.97 0.0
02 03:55 SE 6 16.09 Fair CLR 19 18 94% 75.97 0.0
02 03:35 Calm 16.09 Fair CLR 19 18 94% 76 0.0
02 03:15 E 9 16.09 Mostly Cloudy BKN040 19 18 94% 76.02 0.0
02 02:55 Calm 16.09 Mostly Cloudy BKN042 BKN120 19 18 94% 76.1 0.0 0.03
02 02:36 W 11 16.09 Partly Cloudy SCT120 19 18 94% 76.12 0.0 0.03
02 02:15 N 15 16.09 Thunderstorm Light Rain in Vicinity SCT110 20 18 88% 75.9 0.0 0.03
Date Time (cdt) Wind (kph) Vis. (km) Weather Sky Cond. Air Dwpt Max. Min. Relative Humidity Wind Chill (°C) Heat Index (°C) altimeter (cm) sea level (mb) 1 hr 3 hr 6 hr
6 hour
Temperature (ºC) Pressure Precipitation (cm)